createdAt,value
2018-05-10T00:00:54.053Z,91.32
2018-05-10T00:02:02.079Z,91.89
2018-05-10T00:03:10.150Z,91.89
2018-05-10T00:04:18.240Z,91.89
2018-05-10T00:05:26.260Z,91.32
2018-05-10T00:06:34.347Z,91.22
2018-05-10T00:07:42.397Z,91.42
2018-05-10T00:08:50.463Z,91.51
2018-05-10T00:09:58.542Z,91.80
2018-05-10T00:11:06.612Z,91.22
2018-05-10T00:12:14.666Z,91.80
2018-05-10T00:13:22.727Z,92.36
2018-05-10T00:14:30.766Z,92.08
2018-05-10T00:15:38.825Z,92.36
2018-05-10T00:16:46.903Z,92.18
2018-05-10T00:17:54.965Z,92.18
2018-05-10T00:19:03.020Z,92.27
2018-05-10T00:20:11.077Z,92.36
2018-05-10T00:21:19.140Z,91.03
2018-05-10T00:22:27.218Z,92.08
2018-05-10T00:23:35.270Z,92.18
2018-05-10T00:24:43.307Z,92.36
2018-05-10T00:25:51.368Z,92.18
2018-05-10T00:26:59.454Z,92.27
2018-05-10T00:28:07.511Z,92.65
2018-05-10T00:29:15.561Z,93.23
2018-05-10T00:30:23.643Z,93.32
2018-05-10T00:31:31.689Z,93.51
2018-05-10T00:32:39.811Z,93.32
2018-05-10T00:33:47.798Z,92.36
2018-05-10T00:34:55.860Z,92.56
2018-05-10T00:36:03.930Z,91.61
2018-05-10T00:37:11.976Z,92.18
2018-05-10T00:38:20.067Z,92.56
2018-05-10T00:39:28.098Z,93.32
2018-05-10T00:40:36.188Z,93.70
2018-05-10T00:41:44.240Z,94.46
2018-05-10T00:42:52.325Z,93.70
2018-05-10T00:44:00.379Z,94.08
2018-05-10T00:45:08.417Z,93.79
2018-05-10T00:46:16.481Z,94.08
2018-05-10T00:47:24.523Z,93.89
2018-05-10T00:48:32.599Z,93.70
2018-05-10T00:49:40.659Z,93.75
2018-05-10T00:50:48.727Z,94.74
2018-05-10T00:51:56.771Z,94.46
2018-05-10T00:53:04.841Z,93.60
2018-05-10T00:54:12.887Z,93.08
2018-05-10T00:55:20.965Z,94.03
2018-05-10T00:56:29.020Z,93.94
2018-05-10T00:57:37.076Z,93.84
2018-05-10T00:58:45.158Z,93.65
2018-05-10T00:59:53.191Z,93.75
2018-05-10T01:01:01.245Z,93.65
2018-05-10T01:02:09.349Z,94.13
2018-05-10T01:03:17.378Z,94.22
2018-05-10T01:04:25.454Z,94.51
2018-05-10T01:05:33.504Z,93.94
2018-05-10T01:06:41.563Z,92.89
2018-05-10T01:07:49.646Z,93.46
2018-05-10T01:08:57.693Z,93.94
2018-05-10T01:10:05.749Z,94.42
2018-05-10T01:11:13.815Z,94.51
2018-05-10T01:12:21.842Z,94.51
2018-05-10T01:13:29.950Z,94.79
2018-05-10T01:14:37.990Z,94.60
2018-05-10T01:15:46.041Z,94.79
2018-05-10T01:16:54.087Z,94.93
2018-05-10T01:18:02.153Z,94.65
2018-05-10T01:19:10.242Z,94.42
2018-05-10T01:20:18.280Z,94.70
2018-05-10T01:21:26.344Z,94.51
2018-05-10T01:22:34.407Z,94.60
2018-05-10T01:23:42.470Z,94.46
2018-05-10T01:24:50.519Z,94.46
2018-05-10T01:25:58.582Z,95.03
2018-05-10T01:27:06.655Z,95.41
2018-05-10T01:28:14.725Z,95.32
2018-05-10T01:29:22.786Z,95.22
2018-05-10T01:30:30.837Z,96.26
2018-05-10T01:31:38.900Z,97.31
2018-05-10T01:32:46.939Z,98.31
2018-05-10T01:33:55.026Z,95.84
2018-05-10T01:35:03.063Z,94.93
2018-05-10T01:36:11.170Z,94.27
2018-05-10T01:37:19.181Z,98.41
2018-05-10T01:38:27.250Z,99.55
2018-05-10T01:39:35.322Z,97.93
2018-05-10T01:40:43.363Z,95.27
2018-05-10T01:41:51.429Z,94.13
2018-05-10T01:42:59.502Z,94.79
2018-05-10T01:44:07.560Z,94.27
2018-05-10T01:45:15.606Z,95.12
2018-05-10T01:46:23.662Z,95.41
2018-05-10T01:47:31.720Z,94.42
2018-05-10T01:48:39.812Z,93.84
2018-05-10T01:49:47.864Z,93.94
2018-05-10T01:50:55.933Z,94.13
2018-05-10T01:52:03.976Z,94.37
2018-05-10T01:53:12.016Z,94.18
2018-05-10T01:54:20.083Z,93.60
2018-05-10T01:55:28.158Z,94.51
2018-05-10T01:56:36.227Z,94.08
2018-05-10T01:57:44.273Z,94.65
2018-05-10T01:58:52.335Z,94.65
2018-05-10T02:00:00.418Z,94.84
2018-05-10T02:01:08.449Z,95.12
2018-05-10T02:02:16.495Z,95.22
2018-05-10T02:03:24.569Z,95.70
2018-05-10T02:04:32.639Z,95.32
2018-05-10T02:05:40.690Z,95.41
2018-05-10T02:06:48.762Z,94.74
2018-05-10T02:07:56.819Z,94.56
2018-05-10T02:09:04.872Z,94.46
2018-05-10T02:10:12.939Z,94.74
2018-05-10T02:11:21.009Z,95.22
2018-05-10T02:12:29.062Z,95.32
2018-05-10T02:13:37.139Z,95.03
2018-05-10T02:14:45.172Z,95.22
2018-05-10T02:15:53.251Z,95.51
2018-05-10T02:17:01.299Z,95.41
2018-05-10T02:18:09.363Z,94.84
2018-05-10T02:19:17.418Z,95.17
2018-05-10T02:20:25.458Z,95.94
2018-05-10T02:21:33.536Z,95.46
2018-05-10T02:22:41.576Z,95.41
2018-05-10T02:23:49.640Z,95.79
2018-05-10T02:24:57.723Z,95.17
2018-05-10T02:26:05.772Z,95.27
2018-05-10T02:27:13.827Z,95.36
2018-05-10T02:28:21.872Z,96.50
2018-05-10T02:29:29.957Z,98.40
2018-05-10T02:30:38.029Z,97.88
2018-05-10T02:31:46.087Z,98.55
2018-05-10T02:32:54.130Z,98.07
2018-05-10T02:34:02.164Z,97.50
2018-05-10T02:35:10.249Z,96.17
2018-05-10T02:36:18.424Z,96.17
2018-05-10T02:37:26.373Z,96.55
2018-05-10T02:38:34.444Z,99.99
2018-05-10T02:39:42.498Z,98.93
2018-05-10T02:40:50.544Z,99.50
2018-05-10T02:41:58.609Z,99.99
2018-05-10T02:43:06.664Z,99.99
2018-05-10T02:44:14.732Z,99.99
2018-05-10T02:45:22.804Z,99.99
2018-05-10T02:46:30.844Z,99.99
2018-05-10T02:47:38.910Z,99.99
2018-05-10T02:48:46.981Z,99.99
2018-05-10T02:49:55.021Z,99.99
2018-05-10T02:51:03.067Z,99.84
2018-05-10T02:52:11.151Z,98.69
2018-05-10T02:53:19.229Z,98.74
2018-05-10T02:54:27.260Z,99.50
2018-05-10T02:55:35.344Z,99.99
2018-05-10T02:56:43.386Z,99.99
2018-05-10T02:57:51.443Z,99.99
2018-05-10T02:58:59.528Z,99.98
2018-05-10T03:00:07.574Z,99.60
2018-05-10T03:01:15.640Z,99.31
2018-05-10T03:02:23.714Z,99.02
2018-05-10T03:03:31.734Z,99.98
2018-05-10T03:04:39.828Z,99.99
2018-05-10T03:05:47.881Z,99.99
2018-05-10T03:06:55.962Z,99.99
2018-05-10T03:08:03.982Z,99.08
2018-05-10T03:09:12.042Z,98.03
2018-05-10T03:10:20.106Z,98.03
2018-05-10T03:11:28.189Z,97.84
2018-05-10T03:12:36.244Z,98.03
2018-05-10T03:13:44.292Z,98.41
2018-05-10T03:14:52.370Z,98.60
2018-05-10T03:16:00.443Z,97.27
2018-05-10T03:17:08.470Z,96.55
2018-05-10T03:18:16.542Z,97.13
2018-05-10T03:19:24.610Z,97.98
2018-05-10T03:20:32.660Z,98.03
2018-05-10T03:21:40.740Z,97.13
2018-05-10T03:22:48.792Z,97.98
2018-05-10T03:23:56.845Z,97.98
2018-05-10T03:25:04.910Z,98.55
2018-05-10T03:26:12.947Z,98.36
2018-05-10T03:27:21.028Z,97.98
2018-05-10T03:28:29.084Z,97.98
2018-05-10T03:29:37.162Z,97.31
2018-05-10T03:30:45.213Z,96.94
2018-05-10T03:31:53.269Z,97.69
2018-05-10T03:33:01.325Z,97.98
2018-05-10T03:34:09.386Z,98.36
2018-05-10T03:35:17.462Z,98.46
2018-05-10T03:36:25.503Z,98.46
2018-05-10T03:37:33.570Z,98.08
2018-05-10T03:38:41.641Z,96.74
2018-05-10T03:39:49.702Z,96.46
2018-05-10T03:40:57.756Z,97.41
2018-05-10T03:42:05.818Z,97.88
2018-05-10T03:43:13.872Z,98.83
2018-05-10T03:44:21.916Z,98.36
2018-05-10T03:45:29.989Z,98.55
2018-05-10T03:46:38.050Z,98.55
2018-05-10T03:47:46.108Z,98.55
2018-05-10T03:48:54.174Z,98.93
2018-05-10T03:50:02.232Z,98.46
2018-05-10T03:51:10.298Z,98.46
2018-05-10T03:52:18.362Z,97.98
2018-05-10T03:53:26.422Z,97.69
2018-05-10T03:54:34.472Z,97.88
2018-05-10T03:55:42.567Z,98.17
2018-05-10T03:56:50.608Z,98.74
2018-05-10T03:57:58.653Z,98.55
2018-05-10T03:59:06.735Z,97.88
2018-05-10T04:00:14.812Z,98.08
2018-05-10T04:01:22.844Z,97.98
2018-05-10T04:02:30.891Z,98.60
2018-05-10T04:03:39.010Z,97.93
2018-05-10T04:04:47.021Z,98.41
2018-05-10T04:05:55.167Z,98.41
2018-05-10T04:07:03.154Z,98.27
2018-05-10T04:08:11.204Z,98.50
2018-05-10T04:09:19.255Z,97.93
2018-05-10T04:10:27.327Z,97.64
2018-05-10T04:11:35.398Z,97.08
2018-05-10T04:12:43.452Z,96.50
2018-05-10T04:13:51.472Z,96.50
2018-05-10T04:14:59.561Z,96.98
2018-05-10T04:16:07.652Z,97.22
2018-05-10T04:17:15.682Z,98.03
2018-05-10T04:18:23.745Z,97.93
2018-05-10T04:19:31.785Z,98.60
2018-05-10T04:20:39.862Z,98.12
2018-05-10T04:21:47.930Z,98.22
2018-05-10T04:22:55.980Z,98.12
2018-05-10T04:24:04.075Z,98.41
2018-05-10T04:25:12.089Z,98.50
2018-05-10T04:26:20.162Z,97.83
2018-05-10T04:27:28.234Z,98.60
2018-05-10T04:28:36.285Z,97.93
2018-05-10T04:29:44.364Z,97.55
2018-05-10T04:30:52.410Z,97.93
2018-05-10T04:32:00.553Z,98.03
2018-05-10T04:33:08.970Z,97.83
2018-05-10T04:34:16.584Z,98.60
2018-05-10T04:35:24.638Z,98.12
2018-05-10T04:36:32.713Z,98.79
2018-05-10T04:37:40.780Z,99.07
2018-05-10T04:38:48.931Z,98.60
2018-05-10T04:39:57.405Z,98.97
2018-05-10T04:41:04.972Z,98.88
2018-05-10T04:42:13.055Z,98.74
2018-05-10T04:43:21.524Z,98.17
2018-05-10T04:44:29.154Z,97.13
2018-05-10T04:45:37.244Z,97.13
2018-05-10T04:46:45.253Z,97.98
2018-05-10T04:47:53.311Z,98.74
2018-05-10T04:49:01.381Z,98.55
2018-05-10T04:50:09.436Z,98.08
2018-05-10T04:51:17.525Z,97.22
2018-05-10T04:52:25.555Z,97.41
2018-05-10T04:53:33.632Z,98.36
2018-05-10T04:54:41.727Z,98.36
2018-05-10T04:55:49.763Z,98.36
2018-05-10T04:56:57.811Z,98.65
2018-05-10T04:58:05.878Z,97.88
2018-05-10T04:59:14.454Z,97.98
2018-05-10T05:00:21.997Z,97.88
2018-05-10T05:01:30.045Z,97.69
2018-05-10T05:02:38.125Z,98.65
2018-05-10T05:03:46.175Z,99.12
2018-05-10T05:04:54.229Z,99.02
2018-05-10T05:06:02.292Z,99.12
2018-05-10T05:07:10.364Z,98.36
2018-05-10T05:08:18.429Z,98.55
2018-05-10T05:09:29.251Z,99.02
2018-05-10T05:10:34.526Z,98.55
2018-05-10T05:11:42.609Z,99.60
2018-05-10T05:12:50.727Z,99.50
2018-05-10T05:13:58.737Z,99.98
2018-05-10T05:15:06.778Z,99.99
2018-05-10T05:16:15.448Z,99.99
2018-05-10T05:17:22.892Z,99.99
2018-05-10T05:18:30.975Z,99.99
2018-05-10T05:19:39.018Z,99.99
2018-05-10T05:20:47.099Z,99.99
2018-05-10T05:21:55.152Z,99.99
2018-05-10T05:23:03.191Z,99.99
2018-05-10T05:24:11.346Z,99.99
2018-05-10T05:25:19.327Z,99.99
2018-05-10T05:26:27.401Z,99.99
2018-05-10T05:27:35.449Z,99.99
2018-05-10T05:28:43.509Z,99.99
2018-05-10T05:29:51.554Z,99.99
2018-05-10T05:30:59.643Z,99.99
2018-05-10T05:32:07.686Z,99.99
2018-05-10T05:33:15.751Z,99.99
2018-05-10T05:34:23.831Z,99.99
2018-05-10T05:35:31.911Z,99.99
2018-05-10T05:36:40.008Z,99.99
2018-05-10T05:37:47.994Z,99.99
2018-05-10T05:38:56.066Z,99.99
2018-05-10T05:40:04.120Z,99.94
2018-05-10T05:41:12.259Z,99.65
2018-05-10T05:42:20.260Z,99.99
2018-05-10T05:43:28.429Z,96.98
2018-05-10T05:44:36.364Z,98.56
2018-05-10T05:45:44.445Z,98.46
2018-05-10T05:46:52.507Z,98.56
2018-05-10T05:48:00.555Z,99.04
2018-05-10T05:49:08.646Z,98.36
2018-05-10T05:50:16.681Z,98.13
2018-05-10T05:51:24.757Z,97.99
2018-05-10T05:52:32.820Z,98.80
2018-05-10T05:53:40.894Z,98.03
2018-05-10T05:54:48.941Z,98.13
2018-05-10T05:55:56.997Z,98.22
2018-05-10T05:57:05.043Z,98.13
2018-05-10T05:58:13.121Z,98.51
2018-05-10T05:59:21.170Z,98.22
2018-05-10T06:00:29.252Z,97.22
2018-05-10T06:01:37.319Z,97.03
2018-05-10T06:02:45.367Z,96.66
2018-05-10T06:03:53.435Z,96.56
2018-05-10T06:05:01.497Z,97.13
2018-05-10T06:06:09.578Z,97.18
2018-05-10T06:07:17.633Z,96.32
2018-05-10T06:08:25.698Z,96.13
2018-05-10T06:09:33.740Z,96.42
2018-05-10T06:10:41.795Z,95.75
2018-05-10T06:11:49.884Z,95.22
2018-05-10T06:12:57.946Z,94.27
2018-05-10T06:14:06.017Z,93.41
2018-05-10T06:15:14.090Z,93.45
2018-05-10T06:16:22.121Z,91.54
2018-05-10T06:17:30.191Z,92.07
2018-05-10T06:18:38.269Z,89.29
2018-05-10T06:19:46.324Z,89.01
2018-05-10T06:20:54.379Z,89.01
2018-05-10T06:22:02.454Z,88.76
2018-05-10T06:23:10.521Z,87.62
2018-05-10T06:24:18.578Z,87.23
2018-05-10T06:25:26.648Z,85.99
2018-05-10T06:26:34.721Z,85.84
2018-05-10T06:27:42.771Z,85.27
2018-05-10T06:28:50.867Z,83.83
2018-05-10T06:29:58.911Z,82.97
2018-05-10T06:31:06.979Z,83.64
2018-05-10T06:32:15.040Z,83.59
2018-05-10T06:33:23.122Z,83.11
2018-05-10T06:34:31.168Z,83.39
2018-05-10T06:35:39.244Z,81.57
2018-05-10T06:36:47.383Z,82.53
2018-05-10T06:37:55.382Z,82.82
2018-05-10T06:39:03.436Z,82.43
2018-05-10T06:40:11.494Z,82.15
2018-05-10T06:41:19.572Z,82.34
2018-05-10T06:42:27.638Z,82.24
2018-05-10T06:43:35.698Z,81.29
2018-05-10T06:44:43.769Z,82.34
2018-05-10T06:45:51.822Z,81.77
2018-05-10T06:46:59.880Z,81.48
2018-05-10T06:48:07.970Z,82.24
2018-05-10T06:49:16.036Z,81.67
2018-05-10T06:50:24.093Z,81.38
2018-05-10T06:51:32.155Z,81.15
2018-05-10T06:52:40.234Z,80.90
2018-05-10T06:53:48.298Z,81.05
2018-05-10T06:54:56.348Z,80.87
2018-05-10T06:56:04.437Z,81.25
2018-05-10T06:57:12.508Z,81.44
2018-05-10T06:58:20.585Z,81.86
2018-05-10T06:59:28.634Z,81.57
2018-05-10T07:00:36.701Z,79.85
2018-05-10T07:01:44.748Z,80.71
2018-05-10T07:02:52.824Z,79.37
2018-05-10T07:04:00.878Z,78.80
2018-05-10T07:05:08.971Z,80.04
2018-05-10T07:06:17.022Z,79.57
2018-05-10T07:07:25.069Z,78.80
2018-05-10T07:08:33.141Z,78.70
2018-05-10T07:09:41.336Z,79.37
2018-05-10T07:10:49.333Z,77.75
2018-05-10T07:11:57.361Z,77.55
2018-05-10T07:13:05.411Z,76.79
2018-05-10T07:14:13.492Z,77.65
2018-05-10T07:15:21.535Z,75.93
2018-05-10T07:16:29.623Z,77.08
2018-05-10T07:17:37.690Z,74.55
2018-05-10T07:18:45.795Z,75.07
2018-05-10T07:19:53.828Z,75.26
2018-05-10T07:21:01.874Z,75.45
2018-05-10T07:22:09.946Z,74.87
2018-05-10T07:23:18.018Z,75.26
2018-05-10T07:24:26.083Z,75.02
2018-05-10T07:25:34.130Z,75.89
2018-05-10T07:26:42.210Z,75.31
2018-05-10T07:27:50.279Z,75.79
2018-05-10T07:28:58.357Z,75.41
2018-05-10T07:30:06.435Z,74.58
2018-05-10T07:31:14.471Z,74.20
2018-05-10T07:32:22.533Z,74.65
2018-05-10T07:33:30.734Z,75.35
2018-05-10T07:34:38.671Z,74.77
2018-05-10T07:35:46.740Z,73.97
2018-05-10T07:36:54.849Z,73.54
2018-05-10T07:38:02.865Z,74.68
2018-05-10T07:39:10.937Z,74.74
2018-05-10T07:40:19.044Z,74.26
2018-05-10T07:41:27.081Z,75.31
2018-05-10T07:42:35.144Z,74.93
2018-05-10T07:43:43.202Z,74.58
2018-05-10T07:44:51.264Z,74.20
2018-05-10T07:45:59.347Z,74.20
2018-05-10T07:47:07.396Z,73.82
2018-05-10T07:48:15.447Z,73.57
2018-05-10T07:49:23.543Z,73.09
2018-05-10T07:50:31.569Z,72.61
2018-05-10T07:51:39.667Z,72.99
2018-05-10T07:52:47.750Z,73.09
2018-05-10T07:53:55.807Z,73.19
2018-05-10T07:55:03.853Z,74.33
2018-05-10T07:56:11.917Z,72.61
2018-05-10T07:57:19.998Z,73.66
2018-05-10T07:58:28.073Z,72.99
2018-05-10T07:59:36.136Z,74.15
2018-05-10T08:00:44.201Z,73.86
2018-05-10T08:01:52.266Z,74.62
2018-05-10T08:03:00.342Z,74.58
2018-05-10T08:04:08.381Z,74.77
2018-05-10T08:05:16.458Z,75.16
2018-05-10T08:06:24.505Z,75.54
2018-05-10T08:07:32.593Z,75.54
2018-05-10T08:08:40.659Z,76.31
2018-05-10T08:09:48.748Z,77.26
2018-05-10T08:10:56.814Z,76.60
2018-05-10T08:12:04.859Z,76.79
2018-05-10T08:13:12.943Z,77.84
2018-05-10T08:14:20.986Z,77.08
2018-05-10T08:15:29.069Z,77.36
2018-05-10T08:16:37.159Z,77.23
2018-05-10T08:17:45.185Z,78.03
2018-05-10T08:18:53.265Z,78.80
2018-05-10T08:20:01.322Z,78.09
2018-05-10T08:21:09.412Z,78.57
2018-05-10T08:22:17.461Z,78.57
2018-05-10T08:23:25.528Z,78.19
2018-05-10T08:24:33.589Z,79.24
2018-05-10T08:25:41.640Z,79.33
2018-05-10T08:26:49.719Z,79.62
2018-05-10T08:27:57.920Z,79.72
2018-05-10T08:29:05.885Z,79.77
2018-05-10T08:30:14.028Z,80.44
2018-05-10T08:31:21.951Z,79.39
2018-05-10T08:32:30.063Z,79.68
2018-05-10T08:33:38.136Z,79.77
2018-05-10T08:34:46.204Z,80.25
2018-05-10T08:35:54.255Z,80.16
2018-05-10T08:37:02.321Z,81.02
2018-05-10T08:38:10.382Z,80.92
2018-05-10T08:39:18.439Z,80.63
2018-05-10T08:40:26.533Z,81.11
2018-05-10T08:41:34.596Z,81.40
2018-05-10T08:42:42.633Z,81.02
2018-05-10T08:43:50.735Z,81.49
2018-05-10T08:44:58.855Z,81.68
2018-05-10T08:46:06.860Z,81.78
2018-05-10T08:47:14.920Z,80.54
2018-05-10T08:48:22.986Z,80.54
2018-05-10T08:49:31.044Z,80.92
2018-05-10T08:50:39.129Z,81.21
2018-05-10T08:51:47.204Z,80.63
2018-05-10T08:52:55.244Z,80.82
2018-05-10T08:54:03.310Z,80.06
2018-05-10T08:55:11.358Z,79.96
2018-05-10T08:56:19.431Z,80.63
2018-05-10T08:57:27.501Z,80.92
2018-05-10T08:58:35.621Z,80.44
2018-05-10T08:59:43.636Z,80.73
2018-05-10T09:00:51.686Z,80.63
2018-05-10T09:01:59.796Z,80.19
2018-05-10T09:03:07.863Z,79.62
2018-05-10T09:04:15.887Z,80.19
2018-05-10T09:05:23.969Z,79.91
2018-05-10T09:06:32.000Z,79.24
2018-05-10T09:07:40.090Z,79.62
2018-05-10T09:08:48.232Z,79.39
2018-05-10T09:09:56.241Z,79.91
2018-05-10T09:11:04.279Z,80.19
2018-05-10T09:12:12.370Z,81.25
2018-05-10T09:13:20.448Z,80.87
2018-05-10T09:14:28.487Z,80.77
2018-05-10T09:15:36.559Z,80.96
2018-05-10T09:16:44.639Z,80.58
2018-05-10T09:17:52.685Z,80.82
2018-05-10T09:19:00.748Z,81.54
2018-05-10T09:20:08.827Z,81.59
2018-05-10T09:21:16.888Z,82.07
2018-05-10T09:22:24.952Z,82.35
2018-05-10T09:23:33.006Z,83.22
2018-05-10T09:24:41.082Z,83.60
2018-05-10T09:25:49.172Z,83.40
2018-05-10T09:26:57.284Z,83.50
2018-05-10T09:28:05.278Z,84.36
2018-05-10T09:29:13.366Z,84.94
2018-05-10T09:30:21.404Z,83.12
2018-05-10T09:31:29.500Z,83.89
2018-05-10T09:32:37.537Z,84.17
2018-05-10T09:33:45.644Z,85.03
2018-05-10T09:34:53.666Z,84.84
2018-05-10T09:36:01.723Z,85.51
2018-05-10T09:37:09.806Z,85.71
2018-05-10T09:38:17.857Z,85.71
2018-05-10T09:39:25.982Z,85.94
2018-05-10T09:40:34.038Z,85.47
2018-05-10T09:41:42.072Z,86.23
2018-05-10T09:42:50.160Z,86.43
2018-05-10T09:43:58.214Z,87.09
2018-05-10T09:45:06.249Z,87.29
2018-05-10T09:46:14.460Z,87.57
2018-05-10T09:47:22.387Z,87.86
2018-05-10T09:48:30.481Z,87.86
2018-05-10T09:49:38.522Z,87.57
2018-05-10T09:50:46.599Z,88.34
2018-05-10T09:51:54.645Z,88.53
2018-05-10T09:53:02.725Z,88.91
2018-05-10T09:54:11.056Z,89.29
2018-05-10T09:55:18.870Z,88.72
2018-05-10T09:56:26.984Z,87.09
2018-05-10T09:57:34.983Z,88.05
2018-05-10T09:58:43.059Z,87.95
2018-05-10T09:59:51.144Z,88.15
2018-05-10T10:00:59.198Z,88.62
2018-05-10T10:02:07.255Z,88.53
2018-05-10T10:03:15.330Z,88.05
2018-05-10T10:04:24.183Z,88.81
2018-05-10T10:05:31.434Z,88.81
2018-05-10T10:06:39.739Z,88.15
2018-05-10T10:07:47.709Z,88.62
2018-05-10T10:08:55.660Z,88.15
2018-05-10T10:10:03.704Z,89.53
2018-05-10T10:11:11.754Z,89.62
2018-05-10T10:12:19.844Z,89.15
2018-05-10T10:13:27.889Z,89.15
2018-05-10T10:14:35.942Z,88.09
2018-05-10T10:15:44.129Z,88.86
2018-05-10T10:16:52.083Z,88.76
2018-05-10T10:18:00.167Z,88.29
2018-05-10T10:19:08.821Z,88.00
2018-05-10T10:20:16.289Z,88.38
2018-05-10T10:21:24.931Z,87.90
2018-05-10T10:22:32.503Z,88.29
2018-05-10T10:23:40.477Z,87.81
2018-05-10T10:24:48.548Z,88.38
2018-05-10T10:25:56.606Z,88.38
2018-05-10T10:27:04.690Z,88.48
2018-05-10T10:28:13.222Z,89.15
2018-05-10T10:29:20.803Z,89.43
2018-05-10T10:30:28.870Z,89.34
2018-05-10T10:31:36.963Z,89.05
2018-05-10T10:32:45.481Z,89.43
2018-05-10T10:33:53.079Z,89.15
2018-05-10T10:35:01.146Z,89.91
2018-05-10T10:36:09.199Z,88.95
2018-05-10T10:37:17.709Z,89.29
2018-05-10T10:38:25.343Z,88.81
2018-05-10T10:39:33.382Z,89.19
2018-05-10T10:40:41.448Z,91.01
2018-05-10T10:41:50.003Z,87.95
2018-05-10T10:42:58.168Z,87.76
2018-05-10T10:44:05.656Z,88.04
2018-05-10T10:45:13.726Z,88.81
2018-05-10T10:46:21.793Z,87.27
2018-05-10T10:47:29.989Z,87.99
2018-05-10T10:48:37.933Z,87.03
2018-05-10T10:49:45.964Z,87.13
2018-05-10T10:50:54.048Z,87.32
2018-05-10T10:52:02.093Z,87.70
2018-05-10T10:53:10.195Z,87.99
2018-05-10T10:54:18.251Z,86.65
2018-05-10T10:55:26.333Z,87.23
2018-05-10T10:56:34.389Z,86.84
2018-05-10T10:57:42.475Z,87.18
2018-05-10T10:58:50.509Z,87.37
2018-05-10T10:59:59.130Z,88.13
2018-05-10T11:01:06.657Z,88.47
2018-05-10T11:02:14.721Z,88.23
2018-05-10T11:03:22.764Z,88.33
2018-05-10T11:04:30.837Z,88.04
2018-05-10T11:05:38.915Z,88.62
2018-05-10T11:06:46.981Z,87.18
2018-05-10T11:07:55.043Z,87.85
2018-05-10T11:09:03.127Z,87.37
2018-05-10T11:10:11.191Z,88.71
2018-05-10T11:11:19.664Z,89.19
2018-05-10T11:12:27.467Z,89.09
2018-05-10T11:13:35.589Z,89.48
2018-05-10T11:14:43.434Z,87.90
2018-05-10T11:15:51.512Z,87.70
2018-05-10T11:16:59.568Z,88.66
2018-05-10T11:18:07.661Z,87.99
2018-05-10T11:19:15.805Z,89.23
2018-05-10T11:20:24.027Z,89.43
2018-05-10T11:21:32.018Z,87.90
2018-05-10T11:22:39.896Z,88.47
2018-05-10T11:23:47.970Z,90.00
2018-05-10T11:24:56.634Z,88.56
2018-05-10T11:26:04.330Z,88.85
2018-05-10T11:27:12.165Z,89.04
2018-05-10T11:28:20.229Z,88.76
2018-05-10T11:29:28.283Z,88.90
2018-05-10T11:30:37.925Z,89.19
2018-05-10T11:31:44.882Z,88.71
2018-05-10T11:32:52.890Z,89.95
2018-05-10T11:34:00.542Z,90.91
2018-05-10T11:35:08.636Z,89.19
2018-05-10T11:36:17.278Z,89.29
2018-05-10T11:37:25.163Z,89.19
2018-05-10T11:38:32.827Z,89.23
2018-05-10T11:39:40.894Z,89.14
2018-05-10T11:40:49.209Z,89.23
2018-05-10T11:41:58.850Z,87.90
2018-05-10T11:43:05.356Z,87.51
2018-05-10T11:44:13.149Z,87.37
2018-05-10T11:45:21.200Z,87.08
2018-05-10T11:46:29.594Z,86.21
2018-05-10T11:47:37.641Z,85.93
2018-05-10T11:48:45.809Z,85.45
2018-05-10T11:49:53.653Z,86.25
2018-05-10T11:51:01.917Z,83.86
2018-05-10T11:52:09.973Z,84.53
2018-05-10T11:53:18.281Z,84.82
2018-05-10T11:54:25.757Z,84.72
2018-05-10T11:55:33.920Z,83.38
2018-05-10T11:56:41.848Z,82.42
2018-05-10T11:57:49.967Z,83.29
2018-05-10T11:58:58.353Z,82.04
2018-05-10T12:00:06.161Z,83.19
2018-05-10T12:01:14.141Z,82.23
2018-05-10T12:02:22.341Z,83.95
2018-05-10T12:03:30.278Z,84.82
2018-05-10T12:04:38.353Z,84.39
2018-05-10T12:05:46.660Z,85.25
2018-05-10T12:06:54.705Z,85.93
2018-05-10T12:08:02.561Z,85.83
2018-05-10T12:09:11.054Z,86.02
2018-05-10T12:10:18.864Z,85.54
2018-05-10T12:11:26.736Z,85.30
2018-05-10T12:12:34.966Z,85.21
2018-05-10T12:13:42.887Z,84.19
2018-05-10T12:14:51.024Z,83.71
2018-05-10T12:15:59.301Z,83.91
2018-05-10T12:17:07.076Z,83.23
2018-05-10T12:18:15.249Z,82.18
2018-05-10T12:19:23.371Z,82.27
2018-05-10T12:20:31.531Z,81.79
2018-05-10T12:21:39.619Z,82.18
2018-05-10T12:22:47.419Z,82.27
2018-05-10T12:23:55.492Z,83.09
2018-05-10T12:25:03.565Z,83.29
2018-05-10T12:26:11.880Z,84.15
2018-05-10T12:27:19.685Z,84.11
2018-05-10T12:28:27.977Z,83.92
2018-05-10T12:29:36.210Z,84.20
2018-05-10T12:30:44.333Z,85.06
2018-05-10T12:31:51.953Z,84.68
2018-05-10T12:33:00.384Z,83.86
2018-05-10T12:34:08.317Z,83.76
2018-05-10T12:35:16.407Z,83.48
2018-05-10T12:36:24.238Z,83.33
2018-05-10T12:37:32.486Z,82.85
2018-05-10T12:38:40.344Z,81.89
2018-05-10T12:39:48.690Z,82.37
2018-05-10T12:40:56.487Z,82.27
2018-05-10T12:42:04.821Z,82.18
2018-05-10T12:43:12.873Z,82.08
2018-05-10T12:44:20.685Z,81.74
2018-05-10T12:45:28.761Z,80.78
2018-05-10T12:46:36.913Z,81.74
2018-05-10T12:47:44.897Z,82.12
2018-05-10T12:48:53.564Z,81.74
2018-05-10T12:50:01.404Z,82.21
2018-05-10T12:51:09.096Z,80.68
2018-05-10T12:52:18.315Z,79.63
2018-05-10T12:53:25.487Z,80.58
2018-05-10T12:54:33.319Z,79.72
2018-05-10T12:55:41.371Z,79.91
2018-05-10T12:56:49.428Z,78.96
2018-05-10T12:57:57.518Z,79.63
2018-05-10T12:59:05.749Z,79.53
2018-05-10T13:00:13.636Z,80.01
2018-05-10T13:01:21.707Z,78.67
2018-05-10T13:02:30.025Z,79.21
2018-05-10T13:03:37.845Z,80.35
2018-05-10T13:04:46.206Z,81.37
2018-05-10T13:05:53.974Z,82.52
2018-05-10T13:07:02.045Z,82.14
2018-05-10T13:08:12.103Z,83.29
2018-05-10T13:09:18.310Z,82.52
2018-05-10T13:10:26.266Z,83.58
2018-05-10T13:11:34.328Z,83.76
2018-05-10T13:12:43.409Z,85.06
2018-05-10T13:13:50.467Z,83.82
2018-05-10T13:14:58.538Z,83.44
2018-05-10T13:16:06.600Z,84.58
2018-05-10T13:17:14.659Z,85.35
2018-05-10T13:18:23.063Z,85.45
2018-05-10T13:19:31.267Z,86.41
2018-05-10T13:20:38.863Z,85.45
2018-05-10T13:21:47.230Z,85.60
2018-05-10T13:22:54.991Z,86.65
2018-05-10T13:24:03.378Z,88.47
2018-05-10T13:25:11.146Z,88.90
2018-05-10T13:26:19.315Z,89.48
2018-05-10T13:27:27.266Z,89.95
2018-05-10T13:28:35.627Z,90.24
2018-05-10T13:29:43.722Z,89.95
2018-05-10T13:30:51.766Z,90.24
2018-05-10T13:31:59.837Z,91.30
2018-05-10T13:33:07.969Z,91.49
2018-05-10T13:34:15.901Z,88.56
2018-05-10T13:35:23.736Z,88.28
2018-05-10T13:36:31.830Z,88.95
2018-05-10T13:37:39.920Z,88.56
2018-05-10T13:38:47.943Z,86.46
2018-05-10T13:39:55.998Z,84.58
2018-05-10T13:41:04.074Z,84.53
2018-05-10T13:42:12.114Z,84.25
2018-05-10T13:43:20.204Z,83.58
2018-05-10T13:44:28.250Z,81.02
2018-05-10T13:45:36.330Z,83.33
2018-05-10T13:46:44.408Z,81.12
2018-05-10T13:47:52.462Z,79.68
2018-05-10T13:49:00.540Z,78.77
2018-05-10T13:50:08.603Z,80.87
2018-05-10T13:51:16.676Z,81.07
2018-05-10T13:52:24.731Z,78.09
2018-05-10T13:53:32.796Z,78.47
2018-05-10T13:54:40.877Z,77.80
2018-05-10T13:55:48.944Z,76.94
2018-05-10T13:56:56.985Z,76.75
2018-05-10T13:58:05.068Z,76.90
2018-05-10T13:59:13.140Z,78.34
2018-05-10T14:00:21.223Z,79.68
2018-05-10T14:01:29.275Z,81.02
2018-05-10T14:02:37.368Z,82.23
2018-05-10T14:03:45.403Z,81.56
2018-05-10T14:04:53.484Z,79.45
2018-05-10T14:06:01.513Z,80.12
2018-05-10T14:07:09.607Z,80.70
2018-05-10T14:08:17.675Z,80.22
2018-05-10T14:09:25.789Z,81.23
2018-05-10T14:10:33.830Z,80.60
2018-05-10T14:11:41.869Z,80.32
2018-05-10T14:12:49.958Z,80.51
2018-05-10T14:13:58.029Z,79.45
2018-05-10T14:15:06.075Z,79.22
2018-05-10T14:16:14.147Z,80.37
2018-05-10T14:17:22.209Z,79.51
2018-05-10T14:18:30.261Z,81.43
2018-05-10T14:19:38.373Z,81.04
2018-05-10T14:20:46.418Z,80.37
2018-05-10T14:21:54.581Z,80.70
2018-05-10T14:23:02.555Z,78.30
2018-05-10T14:24:10.599Z,79.74
2018-05-10T14:25:18.714Z,79.74
2018-05-10T14:26:26.749Z,79.39
2018-05-10T14:27:34.821Z,77.38
2018-05-10T14:28:42.892Z,77.82
2018-05-10T14:29:50.943Z,78.11
2018-05-10T14:30:59.037Z,77.53
2018-05-10T14:32:07.107Z,77.34
2018-05-10T14:33:15.191Z,77.53
2018-05-10T14:34:23.240Z,77.63
2018-05-10T14:35:31.289Z,77.59
2018-05-10T14:36:39.373Z,78.36